Terminal Aerodrome Forecast
Issued by NWS Blacksburg, VA

Current Version | Previous Version | Graphics & Text | Print | Product List | Glossary On
Versions: 1 2 3 4 5 6 7 8 9 10 11 12 13 14 15 16 17 18 19 20 21 22 23 24 25 26 27 28 29 30 31 32 33 34 35 36 37 38 39 40 41 42 43 44 45 46 47
000
FTUS41 KRNK 212321
TAFBLF
TAF
KBLF 212321Z 2200/2224 00000KT P6SM VCSH OVC070
      TEMPO 2200/2204 2SM SHRA OVC007
     FM220500 00000KT 4SM SHRA OVC020
     FM221200 VRB03KT 5SM BR VCSH OVC020
     FM221400 VRB03KT 6SM -SHRA OVC020
     FM221700 23005KT 6SM -SHRA OVC015
     FM222100 30005KT 6SM -SHRA OVC008
     FM222300 04005KT 6SM -SHRA OVC008=

USA.gov is the U.S. government's official web portal to all federal, state and local government web resources and services.